createdAt,value
2018-09-21T00:01:05.718Z,4.23
2018-09-21T00:03:37.747Z,4.10
2018-09-21T00:06:09.277Z,4.63
2018-09-21T00:08:40.678Z,3.80
2018-09-21T00:11:12.036Z,4.50
2018-09-21T00:13:43.185Z,4.00
2018-09-21T00:16:14.589Z,4.00
2018-09-21T00:18:45.592Z,4.63
2018-09-21T00:21:17.190Z,4.30
2018-09-21T00:23:48.265Z,4.33
2018-09-21T00:26:19.352Z,4.40
2018-09-21T00:28:50.371Z,4.03
2018-09-21T00:31:21.387Z,4.13
2018-09-21T00:33:52.909Z,3.33
2018-09-21T00:36:24.867Z,4.63
2018-09-21T00:38:56.053Z,4.20
2018-09-21T00:41:27.472Z,4.50
2018-09-21T00:43:58.962Z,4.47
2018-09-21T00:46:30.102Z,4.00
2018-09-21T00:49:01.662Z,4.03
2018-09-21T00:51:33.283Z,4.30
2018-09-21T00:54:04.605Z,4.03
2018-09-21T00:56:36.108Z,5.30
2018-09-21T00:59:07.781Z,6.00
2018-09-21T01:01:39.176Z,5.37
2018-09-21T01:04:10.507Z,4.63
2018-09-21T01:06:43.128Z,5.03
2018-09-21T01:09:14.475Z,4.47
2018-09-21T01:11:46.006Z,5.43
2018-09-21T01:14:17.108Z,4.80
2018-09-21T01:16:48.628Z,4.80
2018-09-21T01:19:19.960Z,4.53
2018-09-21T01:21:51.158Z,5.47
2018-09-21T01:24:22.300Z,5.13
2018-09-21T01:29:48.766Z,4.47
2018-09-21T01:32:20.002Z,5.20
2018-09-21T01:34:51.184Z,4.70
2018-09-21T01:37:23.302Z,5.27
2018-09-21T01:39:54.930Z,5.20
2018-09-21T01:42:26.417Z,4.63
2018-09-21T01:44:57.811Z,5.23
2018-09-21T01:47:29.531Z,5.63
2018-09-21T01:50:01.354Z,4.53
2018-09-21T01:52:32.636Z,5.13
2018-09-21T01:55:04.327Z,5.03
2018-09-21T01:57:35.669Z,4.10
2018-09-21T02:00:07.262Z,4.83
2018-09-21T02:02:38.694Z,5.30
2018-09-21T02:05:10.558Z,3.87
2018-09-21T02:07:42.439Z,5.20
2018-09-21T02:10:14.644Z,5.03
2018-09-21T02:12:46.377Z,5.63
2018-09-21T02:15:18.228Z,5.37
2018-09-21T02:17:50.444Z,6.00
2018-09-21T02:20:22.097Z,5.50
2018-09-21T02:22:53.053Z,4.67
2018-09-21T02:25:24.269Z,5.07
2018-09-21T02:27:55.241Z,5.23
2018-09-21T02:30:26.485Z,6.03
2018-09-21T02:32:57.598Z,5.10
2018-09-21T02:35:28.802Z,4.50
2018-09-21T02:38:00.116Z,5.50
2018-09-21T02:40:31.533Z,5.13
2018-09-21T02:43:02.617Z,4.47
2018-09-21T02:45:33.589Z,5.03
2018-09-21T02:50:30.478Z,5.30
2018-09-21T02:53:02.162Z,4.83
2018-09-21T02:55:33.144Z,4.93
2018-09-21T02:58:04.241Z,4.97
2018-09-21T03:00:35.500Z,4.17
2018-09-21T03:03:06.637Z,5.87
2018-09-21T03:05:37.673Z,5.63
2018-09-21T03:08:08.757Z,4.53
2018-09-21T03:10:39.830Z,6.27
2018-09-21T03:13:11.062Z,6.80
2018-09-21T03:15:42.289Z,4.77
2018-09-21T03:18:13.310Z,6.57
2018-09-21T03:20:44.425Z,4.50
2018-09-21T03:23:15.521Z,5.10
2018-09-21T03:25:46.561Z,4.47
2018-09-21T03:28:17.743Z,4.67
2018-09-21T03:30:49.128Z,4.93
2018-09-21T03:33:20.252Z,3.70
2018-09-21T03:35:51.400Z,4.50
2018-09-21T03:38:22.539Z,4.70
2018-09-21T03:40:54.332Z,4.53
2018-09-21T03:43:25.458Z,4.47
2018-09-21T03:45:56.421Z,4.40
2018-09-21T03:48:27.736Z,5.17
2018-09-21T03:50:58.864Z,3.53
2018-09-21T03:53:30.302Z,3.97
2018-09-21T03:56:01.338Z,4.23
2018-09-21T03:58:32.410Z,5.63
2018-09-21T04:01:03.586Z,4.27
2018-09-21T04:03:35.153Z,4.67
2018-09-21T04:06:06.244Z,3.50
2018-09-21T04:08:37.352Z,3.77
2018-09-21T04:11:08.828Z,3.03
2018-09-21T04:16:05.814Z,3.53
2018-09-21T04:18:37.226Z,3.93
2018-09-21T04:21:08.709Z,3.57
2018-09-21T04:23:40.197Z,4.23
2018-09-21T04:26:11.245Z,3.13
2018-09-21T04:28:43.112Z,2.93
2018-09-21T04:31:14.718Z,3.03
2018-09-21T04:33:45.828Z,4.13
2018-09-21T04:38:42.954Z,2.80
2018-09-21T04:41:14.362Z,2.43
2018-09-21T04:43:45.721Z,3.07
2018-09-21T04:46:17.034Z,2.57
2018-09-21T04:48:48.540Z,2.67
2018-09-21T04:51:20.141Z,2.70
2018-09-21T04:53:52.119Z,2.07
2018-09-21T04:56:23.441Z,1.60
2018-09-21T04:58:55.405Z,1.87
2018-09-21T05:01:26.848Z,2.13
2018-09-21T05:03:58.109Z,2.60
2018-09-21T05:06:30.041Z,1.57
2018-09-21T05:09:01.428Z,1.60
2018-09-21T05:11:32.885Z,1.40
2018-09-21T05:14:04.452Z,2.10
2018-09-21T05:16:35.802Z,1.57
2018-09-21T05:19:06.873Z,2.10
2018-09-21T05:21:38.178Z,1.70
2018-09-21T05:24:09.928Z,1.50
2018-09-21T05:26:41.401Z,1.23
2018-09-21T05:29:12.954Z,1.40
2018-09-21T05:31:43.971Z,1.77
2018-09-21T05:34:16.060Z,1.50
2018-09-21T05:36:47.353Z,1.43
2018-09-21T05:39:18.651Z,1.30
2018-09-21T05:41:49.917Z,1.33
2018-09-21T05:44:21.041Z,0.77
2018-09-21T05:46:52.393Z,1.13
2018-09-21T05:49:23.661Z,1.27
2018-09-21T05:51:54.929Z,1.27
2018-09-21T05:54:26.007Z,1.00
2018-09-21T06:00:03.112Z,1.00
2018-09-21T06:02:34.333Z,1.20
2018-09-21T06:05:06.719Z,1.40
2018-09-21T06:07:38.288Z,1.27
2018-09-21T06:10:10.157Z,1.23
2018-09-21T06:12:41.295Z,1.17
2018-09-21T06:15:12.700Z,1.13
2018-09-21T06:17:44.193Z,1.13
2018-09-21T06:20:15.890Z,1.40
2018-09-21T06:22:47.717Z,1.13
2018-09-21T06:25:18.912Z,1.00
2018-09-21T06:27:50.248Z,1.30
2018-09-21T06:30:21.632Z,1.27
2018-09-21T06:32:52.784Z,1.20
2018-09-21T06:35:23.804Z,1.30
2018-09-21T06:37:55.513Z,0.90
2018-09-21T06:40:26.936Z,1.43
2018-09-21T06:42:58.665Z,1.00
2018-09-21T06:45:29.960Z,1.10
2018-09-21T06:48:00.985Z,0.90
2018-09-21T06:50:32.241Z,1.00
2018-09-21T06:53:03.497Z,0.90
2018-09-21T06:55:34.841Z,1.03
2018-09-21T06:58:06.061Z,1.20
2018-09-21T07:00:37.220Z,1.60
2018-09-21T07:03:08.253Z,0.90
2018-09-21T07:05:39.281Z,1.17
2018-09-21T07:08:10.707Z,1.20
2018-09-21T07:10:42.050Z,1.07
2018-09-21T07:13:13.156Z,1.20
2018-09-21T07:15:44.325Z,1.00
2018-09-21T07:18:15.429Z,1.20
2018-09-21T07:20:46.606Z,1.70
2018-09-21T07:23:17.817Z,1.30
2018-09-21T07:25:49.046Z,1.27
2018-09-21T07:28:20.185Z,1.27
2018-09-21T07:30:51.379Z,1.20
2018-09-21T07:33:22.496Z,1.33
2018-09-21T07:35:53.773Z,1.20
2018-09-21T07:38:25.296Z,1.00
2018-09-21T07:40:56.269Z,1.10
2018-09-21T07:43:27.681Z,1.07
2018-09-21T07:45:59.412Z,0.93
2018-09-21T07:48:30.985Z,1.57
2018-09-21T07:51:02.341Z,1.33
2018-09-21T07:53:33.632Z,1.17
2018-09-21T07:56:04.976Z,1.20
2018-09-21T07:58:36.304Z,1.03
2018-09-21T08:01:08.273Z,1.00
2018-09-21T08:03:39.781Z,1.20
2018-09-21T08:06:11.268Z,1.50
2018-09-21T08:08:42.781Z,1.40
2018-09-21T08:11:13.975Z,1.30
2018-09-21T08:13:45.512Z,1.13
2018-09-21T08:16:16.733Z,1.20
2018-09-21T08:18:48.786Z,1.47
2018-09-21T08:21:20.508Z,1.00
2018-09-21T08:23:52.263Z,1.03
2018-09-21T08:26:23.624Z,1.33
2018-09-21T08:28:55.417Z,1.20
2018-09-21T08:31:26.981Z,1.43
2018-09-21T08:33:58.380Z,1.20
2018-09-21T08:36:29.992Z,1.10
2018-09-21T08:39:01.234Z,1.13
2018-09-21T08:41:32.496Z,1.20
2018-09-21T08:44:03.824Z,1.67
2018-09-21T08:46:35.420Z,1.37
2018-09-21T08:49:07.172Z,1.10
2018-09-21T08:51:38.196Z,1.47
2018-09-21T08:54:09.915Z,1.23
2018-09-21T08:56:41.444Z,1.20
2018-09-21T08:59:12.729Z,1.70
2018-09-21T09:01:43.793Z,1.30
2018-09-21T09:04:15.017Z,1.57
2018-09-21T09:06:46.477Z,1.60
2018-09-21T09:09:17.849Z,1.70
2018-09-21T09:11:49.652Z,1.50
2018-09-21T09:14:21.463Z,2.23
2018-09-21T09:16:53.349Z,1.90
2018-09-21T09:19:25.084Z,1.67
2018-09-21T09:21:56.775Z,1.60
2018-09-21T09:24:28.403Z,1.97
2018-09-21T09:26:59.928Z,1.83
2018-09-21T09:29:31.496Z,2.30
2018-09-21T09:32:03.136Z,2.17
2018-09-21T09:34:35.208Z,2.27
2018-09-21T09:37:06.706Z,2.10
2018-09-21T09:39:37.938Z,1.47
2018-09-21T09:42:09.317Z,2.00
2018-09-21T09:44:40.506Z,2.00
2018-09-21T09:47:11.517Z,1.90
2018-09-21T09:49:42.560Z,2.20
2018-09-21T09:52:13.925Z,1.90
2018-09-21T09:54:45.116Z,1.93
2018-09-21T09:57:16.352Z,1.93
2018-09-21T09:59:47.573Z,2.53
2018-09-21T10:02:18.585Z,1.80
2018-09-21T10:04:49.647Z,2.27
2018-09-21T10:07:20.913Z,2.20
2018-09-21T10:09:51.912Z,1.70
2018-09-21T10:12:22.909Z,2.20
2018-09-21T10:14:53.988Z,2.17
2018-09-21T10:17:25.045Z,2.83
2018-09-21T10:19:56.056Z,2.53
2018-09-21T10:22:27.129Z,2.10
2018-09-21T10:24:58.373Z,2.93
2018-09-21T10:27:30.245Z,2.43
2018-09-21T10:30:01.711Z,2.47
2018-09-21T10:32:32.932Z,2.57
2018-09-21T10:35:03.950Z,3.17
2018-09-21T10:37:35.206Z,2.80
2018-09-21T10:40:06.488Z,2.50
2018-09-21T10:42:37.660Z,2.60
2018-09-21T10:45:09.109Z,2.50
2018-09-21T10:47:40.220Z,2.80
2018-09-21T10:50:11.233Z,2.30
2018-09-21T10:52:42.268Z,2.27
2018-09-21T10:55:13.753Z,2.13
2018-09-21T10:57:44.757Z,2.90
2018-09-21T11:00:15.815Z,2.83
2018-09-21T11:02:47.077Z,4.00
2018-09-21T11:05:18.061Z,2.77
2018-09-21T11:07:49.014Z,2.40
2018-09-21T11:10:20.545Z,3.03
2018-09-21T11:12:51.626Z,2.07
2018-09-21T11:15:30.873Z,2.50
2018-09-21T11:18:01.787Z,2.90
2018-09-21T11:20:32.765Z,2.43
2018-09-21T11:23:03.795Z,2.97
2018-09-21T11:25:34.858Z,3.20
2018-09-21T11:28:05.967Z,2.57
2018-09-21T11:30:37.083Z,2.93
2018-09-21T11:33:08.220Z,2.30
2018-09-21T11:35:39.364Z,2.30
2018-09-21T11:38:10.445Z,2.50
2018-09-21T11:40:41.737Z,3.03
2018-09-21T11:43:13.053Z,3.27
2018-09-21T11:45:44.304Z,2.87
2018-09-21T11:48:15.460Z,2.70
2018-09-21T11:50:46.548Z,3.40
2018-09-21T11:53:17.621Z,2.50
2018-09-21T11:55:48.872Z,2.80
2018-09-21T11:58:20.021Z,2.43
2018-09-21T12:00:51.352Z,2.57
2018-09-21T12:03:22.487Z,3.10
2018-09-21T12:05:53.696Z,3.27
2018-09-21T12:08:24.862Z,3.87
2018-09-21T12:10:55.925Z,3.87
2018-09-21T12:13:26.856Z,3.00
2018-09-21T12:15:57.867Z,2.73
2018-09-21T12:18:28.826Z,3.03
2018-09-21T12:20:59.777Z,2.83
2018-09-21T12:23:30.786Z,2.93
2018-09-21T12:26:01.921Z,3.43
2018-09-21T12:28:32.981Z,3.13
2018-09-21T12:31:04.015Z,2.80
2018-09-21T12:33:35.364Z,3.20
2018-09-21T12:36:06.890Z,3.20
2018-09-21T12:38:38.032Z,3.43
2018-09-21T12:41:09.092Z,3.20
2018-09-21T12:43:40.028Z,2.70
2018-09-21T12:46:15.328Z,3.67
2018-09-21T12:48:46.748Z,3.43
2018-09-21T12:51:17.768Z,3.77
2018-09-21T12:53:48.760Z,2.87
2018-09-21T12:56:19.716Z,3.47
2018-09-21T12:58:50.825Z,3.50
2018-09-21T13:01:22.001Z,3.87
2018-09-21T13:03:53.114Z,3.10
2018-09-21T13:06:24.192Z,3.57
2018-09-21T13:08:57.289Z,3.17
2018-09-21T13:11:28.427Z,3.57
2018-09-21T13:13:59.635Z,3.30
2018-09-21T13:16:31.486Z,3.23
2018-09-21T13:19:02.646Z,3.73
2018-09-21T13:21:33.714Z,5.07
2018-09-21T13:24:04.684Z,4.70
2018-09-21T13:26:35.772Z,4.63
2018-09-21T13:29:06.813Z,5.87
2018-09-21T13:31:37.829Z,6.10
2018-09-21T13:34:08.944Z,6.17
2018-09-21T13:36:39.970Z,5.10
2018-09-21T13:39:13.666Z,5.63
2018-09-21T13:41:44.889Z,6.33
2018-09-21T13:44:15.997Z,6.33
2018-09-21T13:46:47.385Z,6.50
2018-09-21T13:49:18.517Z,5.13
2018-09-21T13:51:49.894Z,4.73
2018-09-21T13:54:20.992Z,5.40
2018-09-21T13:56:52.132Z,5.53
2018-09-21T13:59:23.208Z,5.13
2018-09-21T14:01:54.458Z,5.10
2018-09-21T14:04:25.722Z,5.87
2018-09-21T14:06:56.692Z,5.63
2018-09-21T14:09:27.740Z,6.47
2018-09-21T14:11:58.881Z,5.77
2018-09-21T14:14:29.968Z,5.30
2018-09-21T14:17:01.321Z,4.80
2018-09-21T14:19:32.426Z,6.33
2018-09-21T14:22:03.351Z,5.90
2018-09-21T14:24:34.476Z,4.47
2018-09-21T14:27:05.500Z,5.40
2018-09-21T14:29:36.664Z,4.90
2018-09-21T14:32:07.921Z,4.63
2018-09-21T14:34:39.093Z,5.20
2018-09-21T14:37:10.173Z,5.70
2018-09-21T14:39:41.268Z,4.80
2018-09-21T14:44:38.325Z,6.23
2018-09-21T14:47:09.280Z,5.10
2018-09-21T14:49:40.280Z,4.70
2018-09-21T14:52:11.367Z,4.93
2018-09-21T14:54:42.600Z,5.47
2018-09-21T14:57:13.825Z,4.87
2018-09-21T14:59:45.015Z,5.27
2018-09-21T15:02:16.271Z,5.20
2018-09-21T15:04:47.561Z,5.00
2018-09-21T15:07:18.829Z,5.17
2018-09-21T15:09:49.915Z,4.23
2018-09-21T15:12:21.205Z,4.13
2018-09-21T15:14:52.400Z,4.40
2018-09-21T15:17:23.797Z,4.20
2018-09-21T15:19:54.894Z,4.47
2018-09-21T15:22:26.017Z,3.77
2018-09-21T15:24:57.117Z,4.50
2018-09-21T15:27:28.332Z,4.73
2018-09-21T15:29:59.514Z,4.30
2018-09-21T15:32:30.661Z,4.03
2018-09-21T15:35:03.351Z,3.87
2018-09-21T15:37:34.399Z,4.03
2018-09-21T15:40:05.913Z,5.00
2018-09-21T15:42:37.001Z,4.07
2018-09-21T15:45:08.439Z,4.37
2018-09-21T15:47:39.413Z,4.77
2018-09-21T15:50:10.740Z,4.33
2018-09-21T15:52:41.867Z,4.80
2018-09-21T15:55:12.929Z,4.00
2018-09-21T15:57:44.120Z,3.53
2018-09-21T16:00:15.352Z,4.97
2018-09-21T16:02:46.654Z,3.90
2018-09-21T16:05:17.688Z,4.33
2018-09-21T16:07:49.117Z,4.67
2018-09-21T16:12:45.834Z,4.47
2018-09-21T16:15:16.900Z,4.60
2018-09-21T16:17:47.964Z,4.03
2018-09-21T16:20:19.216Z,4.47
2018-09-21T16:22:50.316Z,3.57
2018-09-21T16:25:21.502Z,4.10
2018-09-21T16:27:52.560Z,3.90
2018-09-21T16:30:23.690Z,4.03
2018-09-21T16:32:54.995Z,3.70
2018-09-21T16:35:26.310Z,4.13
2018-09-21T16:37:57.470Z,4.40
2018-09-21T16:40:28.613Z,3.50
2018-09-21T16:42:59.697Z,3.80
2018-09-21T16:45:30.706Z,4.33
2018-09-21T16:48:01.945Z,3.37
2018-09-21T16:50:33.375Z,3.00
2018-09-21T16:53:04.301Z,3.70
2018-09-21T16:55:35.605Z,4.03
2018-09-21T16:58:06.825Z,4.33
2018-09-21T17:00:38.358Z,4.00
2018-09-21T17:03:09.914Z,3.33
2018-09-21T17:05:41.030Z,3.87
2018-09-21T17:08:12.149Z,3.73
2018-09-21T17:10:43.204Z,3.27
2018-09-21T17:13:14.671Z,3.33
2018-09-21T17:15:46.089Z,3.53
2018-09-21T17:18:17.085Z,3.23
2018-09-21T17:20:48.230Z,3.27
2018-09-21T17:23:19.325Z,3.47
2018-09-21T17:25:50.533Z,3.20
2018-09-21T17:28:21.692Z,3.67
2018-09-21T17:30:53.345Z,3.60
2018-09-21T17:33:25.137Z,3.40
2018-09-21T17:35:56.140Z,3.20
2018-09-21T17:38:27.544Z,3.37
2018-09-21T17:40:58.660Z,3.37
2018-09-21T17:43:29.903Z,3.60
2018-09-21T17:48:26.888Z,2.63
2018-09-21T17:50:58.001Z,3.70
2018-09-21T17:53:29.030Z,3.77
2018-09-21T17:56:00.293Z,3.30
2018-09-21T17:58:31.341Z,3.70
2018-09-21T18:01:02.549Z,3.70
2018-09-21T18:03:33.660Z,3.60
2018-09-21T18:06:04.729Z,3.23
2018-09-21T18:08:36.361Z,3.30
2018-09-21T18:11:07.454Z,3.27
2018-09-21T18:13:38.460Z,3.00
2018-09-21T18:16:09.611Z,3.20
2018-09-21T18:18:40.629Z,3.20
2018-09-21T18:21:11.644Z,3.40
2018-09-21T18:23:42.672Z,3.90
2018-09-21T18:26:13.951Z,3.47
2018-09-21T18:28:45.576Z,4.00
2018-09-21T18:31:16.706Z,3.40
2018-09-21T18:33:47.764Z,3.57
2018-09-21T18:36:18.813Z,3.90
2018-09-21T18:38:49.836Z,3.77
2018-09-21T18:41:20.935Z,3.03
2018-09-21T18:43:52.253Z,2.83
2018-09-21T18:46:23.632Z,3.40
2018-09-21T18:48:54.752Z,3.27
2018-09-21T18:51:26.034Z,3.50
2018-09-21T18:53:57.476Z,3.03
2018-09-21T18:56:28.509Z,2.83
2018-09-21T18:59:00.096Z,3.10
2018-09-21T19:01:31.073Z,3.73
2018-09-21T19:04:02.579Z,3.07
2018-09-21T19:06:34.041Z,3.63
2018-09-21T19:09:06.001Z,3.30
2018-09-21T19:11:37.048Z,3.20
2018-09-21T19:14:08.240Z,3.33
2018-09-21T19:16:39.363Z,3.30
2018-09-21T19:19:10.843Z,3.47
2018-09-21T19:21:41.950Z,2.57
2018-09-21T19:24:13.297Z,3.70
2018-09-21T19:26:44.340Z,3.30
2018-09-21T19:29:15.500Z,3.00
2018-09-21T19:31:46.941Z,3.03
2018-09-21T19:34:18.502Z,3.27
2018-09-21T19:36:49.651Z,3.33
2018-09-21T19:39:20.814Z,3.23
2018-09-21T19:41:52.245Z,3.67
2018-09-21T19:44:23.379Z,3.33
2018-09-21T19:59:52.271Z,3.70
2018-09-21T20:02:23.763Z,2.73
2018-09-21T20:04:54.976Z,3.23
2018-09-21T20:07:40.827Z,2.63
2018-09-21T20:10:12.003Z,3.30
2018-09-21T20:12:43.386Z,2.60
2018-09-21T20:15:15.007Z,2.77
2018-09-21T20:17:46.415Z,2.97
2018-09-21T20:20:17.689Z,3.27
2018-09-21T20:22:49.097Z,3.50
2018-09-21T20:25:20.685Z,2.97
2018-09-21T20:27:52.055Z,3.00
2018-09-21T20:30:28.099Z,2.97
2018-09-21T20:33:04.241Z,2.93
2018-09-21T20:36:05.711Z,3.27
2018-09-21T20:38:37.362Z,2.77
2018-09-21T20:41:08.468Z,3.43
2018-09-21T20:43:39.750Z,3.03
2018-09-21T20:46:11.260Z,3.13
2018-09-21T20:48:42.609Z,3.10
2018-09-21T20:51:13.612Z,3.03
2018-09-21T20:53:44.922Z,2.87
2018-09-21T20:56:15.975Z,4.27
2018-09-21T20:58:47.549Z,2.57
2018-09-21T21:01:19.055Z,3.30
2018-09-21T21:03:50.254Z,3.80
2018-09-21T21:06:21.460Z,3.40
2018-09-21T21:08:52.482Z,3.50
2018-09-21T21:11:24.520Z,3.43
2018-09-21T21:13:55.677Z,3.43
2018-09-21T21:16:26.744Z,3.03
2018-09-21T21:18:58.042Z,3.80
2018-09-21T21:21:29.544Z,2.93
2018-09-21T21:24:00.651Z,3.00
2018-09-21T21:26:31.753Z,3.57
2018-09-21T21:29:03.924Z,3.80
2018-09-21T21:31:35.064Z,3.40
2018-09-21T21:34:06.205Z,3.40
2018-09-21T21:36:37.258Z,3.90
2018-09-21T21:39:10.866Z,2.87
2018-09-21T21:41:41.944Z,3.43
2018-09-21T21:44:12.968Z,3.83
2018-09-21T21:46:44.126Z,3.77
2018-09-21T21:49:15.190Z,3.60
2018-09-21T21:51:46.190Z,3.27
2018-09-21T21:54:17.236Z,3.13
2018-09-21T21:56:48.445Z,3.67
2018-09-21T21:59:19.596Z,3.57
2018-09-21T22:01:50.717Z,3.27
2018-09-21T22:04:21.778Z,3.57
2018-09-21T22:06:52.938Z,3.27
2018-09-21T22:09:24.027Z,3.57
2018-09-21T22:11:59.689Z,3.73
2018-09-21T22:14:30.988Z,3.50
2018-09-21T22:17:02.130Z,3.63
2018-09-21T22:19:33.375Z,3.50
2018-09-21T22:22:04.487Z,4.50
2018-09-21T22:24:35.536Z,4.47
2018-09-21T22:27:06.737Z,5.07
2018-09-21T22:29:37.819Z,4.70
2018-09-21T22:32:09.100Z,4.40
2018-09-21T22:34:40.352Z,4.20
2018-09-21T22:37:11.338Z,5.10
2018-09-21T22:39:42.360Z,4.93
2018-09-21T22:42:13.362Z,5.17
2018-09-21T22:44:44.440Z,4.60
2018-09-21T22:47:15.515Z,4.77
2018-09-21T22:49:46.627Z,5.77
2018-09-21T22:52:17.675Z,5.67
2018-09-21T22:54:48.707Z,5.70
2018-09-21T22:57:19.687Z,6.00
2018-09-21T22:59:50.759Z,5.83
2018-09-21T23:02:21.991Z,5.83
2018-09-21T23:04:53.443Z,6.30
2018-09-21T23:07:24.397Z,5.73
2018-09-21T23:09:55.731Z,6.93
2018-09-21T23:12:27.191Z,7.47
2018-09-21T23:14:58.156Z,7.17
2018-09-21T23:17:29.577Z,7.73
2018-09-21T23:20:00.851Z,7.00
2018-09-21T23:22:31.937Z,7.10
2018-09-21T23:25:03.510Z,6.53
2018-09-21T23:27:35.168Z,7.10
2018-09-21T23:30:06.373Z,5.93
2018-09-21T23:32:37.439Z,6.67
2018-09-21T23:35:08.628Z,6.60
2018-09-21T23:37:39.674Z,3.37
2018-09-21T23:40:11.133Z,3.03
2018-09-21T23:42:42.324Z,2.37
2018-09-21T23:45:13.467Z,2.77
2018-09-21T23:47:44.690Z,2.90
2018-09-21T23:50:15.732Z,3.30
2018-09-21T23:52:46.811Z,2.90
2018-09-21T23:55:18.072Z,2.83
2018-09-21T23:57:49.179Z,2.00
